Historyczne dane pomiarowe

Dodano dane terminowe – wersja testowa.

Dane z okresu 1951-2018

Wersja bazy: 1.27 [2018-11-28, lista zmian], aktualizacja planowana na 2018-12-07

Dane meteo z obszaru Polski uzyskane na podstawie danych udostępnionych przez Instytut Meteorologii i Gospodarki Wodnej – Państwowy Instytut Badawczy.

 

Wybierz Datę:    

       

TemperaturaWilgotnośćWiatrCiśnienieOpadyŚniegCzas trwania zjawisk
 Stacja t tx tn tng RH VA  wxwx mslp ppp RRR   cm mm wxwxwxwxwxwxwx
1978-11-08 3.0 9.7 -1.2--- 0.0 0.3---- 0.0------------
1978-11-09 0.9 4.1 -1.5--- 0.7 1.3---- 0.0------------
1978-11-10 -1.2 6.1 -5.9--- 0.0 0.0---- 0.0------------
1978-11-11 -3.2 5.6 -7.4--- 0.0 0.0---- 0.0------------
1978-11-12 -3.8 3.1 -8.7--- 0.3 0.3---- 0.0------------
1978-11-13 -3.8 6.7 -9.1--- 0.0 0.0---- 0.0------------
1978-11-14 -1.4 3.9 -7.4--- 3.0 0.0---- 0.0------------
1978-11-15 -0.2 1.4 -2.1--- 2.3 4.3---- 0.0------------
1978-11-16 2.7 6.5 -1.5--- 0.3 7.3---- 0.0------------
1978-11-17 2.4 6.1 -0.8--- 2.0 3.0---- 0.0------------
1978-11-18 0.7 1.9 -0.8--- 2.0 7.7---- 0.0------------
1978-11-19 0.5 2.5 -0.6--- 2.0 2.7---- 0.0------------
1978-11-20 3.5 7.2 -2.6--- 0.0 7.0---- 0.0------------
1978-11-21 2.0 5.9 -2.4--- 4.3 0.3---- 0.0------------
1978-11-22 1.3 2.4 -2.9--- 6.3 6.3---- 0.0------------
1978-11-23 2.2 3.5 -0.1--- 8.0 3.7---- 0.0------------
1978-11-24 3.1 4.2 1.7--- 7.7 2.7---- 0.0------------
1978-11-25 3.9 5.8 -1.6--- 1.3 8.0---- 0.0------------
1978-11-26 1.7 4.5 -2.5--- 5.0 0.7---- 0.0------------
1978-11-27 1.0 8.9 -5.3--- 4.7 0.7---- 0.0------------
1978-11-28 2.0 6.6 -1.5--- 8.0 0.7---- 15.2------------
1978-11-29 -1.0 0.8 -2.4--- 7.7 1.0---- 0.1-- 16---------
1978-11-30 -2.8 0.0 -9.1--- 8.0 0.0---- 2.1-- 14---------
1978-12-01 0.7 1.3 -0.6--- 8.0 0.7---- 9.0-- 15---------
1978-12-02 0.0 1.1 -1.7--- 8.0 0.3---- 0.2-- 16---------
1978-12-03 -3.7 -1.2 -7.8--- 8.0 1.0---- 1.0-- 16---------
1978-12-04-11.9 -6.8-13.9--- 8.0 2.0---- 0.9-- 17---------
1978-12-05-13.6-10.9-16.3--- 8.0 0.0---- 1.2-- 16---------
1978-12-06-12.5 -8.5-20.1--- 3.0 0.0---- 0.0-- 18---------
1978-12-07-17.5 -8.3-23.3--- 0.0 0.0---- 0.0-- 17---------
185.0 ms

 

Źródłem pochodzenia danych jest Instytut Meteorologii i Gospodarki Wodnej – Państwowy Instytut Badawczy. Dane Instytutu Meteorologii i Gospodarki Wodnej – Państwowego Instytutu Badawczego zostały przetworzone.

Dane źródłowe można odnaleźć na stronie https://dane.imgw.pl